Time;durP1;ratioP1;P1;durP2;ratioP2;P2;SDS_P1;SDS_P2;PMS_P1;PMS_P2;Temp;Humidity;BMP_temperature;BMP_pressure;BME280_temperature;BME280_humidity;BME280_pressure;Samples;Min_cycle;Max_cycle;Signal;HPM_P1;HPM_P2
2021/12/14 00:01:31;;;;;;;3.33;2.40;;;6.90;99.90;;;;;;5092424;28;20020;-82
2021/12/14 00:04:10;;;;;;;3.83;1.85;;;7.20;99.90;;;;;;5093293;28;20032;-81
2021/12/14 00:06:38;;;;;;;2.22;2.03;;;7.40;99.90;;;;;;5083488;28;20024;-80
2021/12/14 00:09:05;;;;;;;3.40;2.20;;;7.80;99.90;;;;;;5093213;28;20028;-82
2021/12/14 00:16:54;;;;;;;3.75;2.78;;;8.20;99.90;;;;;;5092411;28;20026;-81
2021/12/14 00:19:20;;;;;;;5.43;3.15;;;8.10;99.90;;;;;;5093247;28;20026;-82
2021/12/14 00:21:51;;;;;;;3.80;2.85;;;8.10;99.90;;;;;;5088867;28;20020;-82
2021/12/14 00:24:17;;;;;;;4.78;3.17;;;8.10;99.90;;;;;;5090947;28;20105;-82
2021/12/14 00:26:45;;;;;;;3.83;3.00;;;8.00;99.90;;;;;;5089575;28;20106;-82
2021/12/14 00:29:19;;;;;;;4.80;3.03;;;7.90;99.90;;;;;;5090486;28;20032;-82
2021/12/14 00:31:46;;;;;;;4.10;3.05;;;7.80;99.90;;;;;;5090553;28;20027;-82
2021/12/14 00:34:14;;;;;;;5.40;3.05;;;7.70;99.90;;;;;;5089267;28;20037;-82
2021/12/14 00:36:40;;;;;;;7.65;3.67;;;7.60;99.90;;;;;;5090145;28;20432;-82
2021/12/14 00:39:10;;;;;;;4.10;3.42;;;7.40;99.90;;;;;;5087960;28;20082;-82
2021/12/14 00:41:38;;;;;;;7.15;3.47;;;7.30;99.90;;;;;;5090826;28;20390;-81
2021/12/14 00:44:04;;;;;;;5.07;4.03;;;7.10;99.90;;;;;;5089915;28;20024;-81
2021/12/14 00:46:30;;;;;;;16.10;10.18;;;7.00;99.90;;;;;;5088766;28;20069;-82
2021/12/14 00:48:56;;;;;;;5.57;3.90;;;6.90;99.90;;;;;;5088643;28;20028;-82
2021/12/14 00:51:27;;;;;;;4.95;3.75;;;6.80;99.90;;;;;;5085120;28;20501;-82
2021/12/14 00:53:55;;;;;;;5.32;3.83;;;6.90;99.90;;;;;;5087594;28;20140;-83
2021/12/14 00:56:21;;;;;;;9.05;4.07;;;7.10;99.90;;;;;;5086575;28;20060;-82
2021/12/14 00:58:47;;;;;;;6.15;4.10;;;7.20;99.90;;;;;;5089968;28;20059;-80
2021/12/14 01:01:26;;;;;;;5.22;3.75;;;7.40;99.90;;;;;;5087638;28;20509;-81
2021/12/14 01:03:57;;;;;;;6.40;4.20;;;7.40;99.90;;;;;;5081720;28;20042;-81
2021/12/14 01:06:27;;;;;;;6.72;4.35;;;7.40;99.90;;;;;;5085615;28;20027;-81
2021/12/14 01:08:53;;;;;;;7.95;3.83;;;7.40;99.90;;;;;;5089962;28;20447;-81
2021/12/14 01:11:41;;;;;;;6.82;4.22;;;7.40;99.90;;;;;;5091164;28;20024;-81
2021/12/14 01:14:25;;;;;;;4.93;3.63;;;7.30;99.90;;;;;;5083683;28;20123;-81
2021/12/14 01:17:08;;;;;;;7.97;4.05;;;7.30;99.90;;;;;;5090612;28;20024;-81
2021/12/14 01:19:37;;;;;;;7.97;4.03;;;7.20;99.90;;;;;;5088041;28;20038;-81
2021/12/14 01:22:32;;;;;;;4.88;3.80;;;7.10;99.90;;;;;;5087417;28;20032;-82
2021/12/14 01:25:17;;;;;;;5.07;3.40;;;7.10;99.90;;;;;;5078893;28;20028;-83
2021/12/14 01:27:52;;;;;;;8.02;4.03;;;7.00;99.90;;;;;;5089658;28;20059;-83
2021/12/14 01:30:23;;;;;;;8.25;4.78;;;6.90;99.90;;;;;;5081663;28;20017;-82
2021/12/14 01:32:50;;;;;;;4.72;4.03;;;6.80;99.90;;;;;;5089771;28;20028;-82
2021/12/14 01:35:21;;;;;;;4.90;4.03;;;6.70;99.90;;;;;;5081875;28;21022;-82
2021/12/14 01:38:00;;;;;;;6.88;4.05;;;6.60;99.90;;;;;;5083108;28;20387;-82
2021/12/14 01:40:52;;;;;;;4.35;3.83;;;6.60;99.90;;;;;;5083582;28;20040;-82
2021/12/14 01:43:15;;;;;;;7.85;4.07;;;6.50;99.90;;;;;;5084445;28;20478;-82
2021/12/14 01:45:41;;;;;;;5.25;4.20;;;6.70;99.90;;;;;;5077957;28;20038;-82
2021/12/14 01:48:07;;;;;;;6.05;3.70;;;6.80;99.90;;;;;;5089258;28;20040;-83
2021/12/14 01:50:41;;;;;;;7.22;4.10;;;6.80;99.90;;;;;;5090486;28;20094;-82
2021/12/14 01:53:08;;;;;;;5.03;3.78;;;6.80;99.90;;;;;;5095157;28;20404;-82
2021/12/14 01:55:38;;;;;;;5.13;4.32;;;6.70;99.90;;;;;;5082854;28;20020;-81
2021/12/14 01:58:09;;;;;;;4.15;2.95;;;6.60;99.90;;;;;;5088881;28;20120;-81
2021/12/14 02:00:37;;;;;;;7.10;3.75;;;6.60;99.90;;;;;;5085399;28;20020;-81
2021/12/14 02:03:06;;;;;;;5.05;3.85;;;6.50;99.90;;;;;;5090316;28;20032;-81
2021/12/14 02:05:43;;;;;;;4.25;3.72;;;6.50;99.90;;;;;;5090140;28;20080;-80
2021/12/14 02:08:19;;;;;;;4.95;4.30;;;6.50;99.90;;;;;;5083005;28;20486;-82
2021/12/14 02:10:45;;;;;;;6.55;4.47;;;6.40;99.90;;;;;;5087652;28;20039;-80
2021/12/14 02:13:11;;;;;;;8.45;4.50;;;6.30;99.90;;;;;;5089222;28;20032;-81
2021/12/14 02:15:41;;;;;;;4.70;4.00;;;6.20;99.90;;;;;;5090072;28;20113;-82
2021/12/14 02:18:14;;;;;;;9.15;5.07;;;6.00;99.90;;;;;;5087549;28;21788;-80
2021/12/14 02:20:59;;;;;;;;;;;5.80;99.90;;;;;;5080704;28;20025;-81
2021/12/14 02:23:27;;;;;;;10.07;6.88;;;5.70;99.90;;;;;;5081917;28;19908;-81
2021/12/14 02:25:55;;;;;;;8.25;5.53;;;5.60;99.90;;;;;;5085526;28;20112;-81
2021/12/14 02:28:22;;;;;;;6.75;5.28;;;5.50;99.90;;;;;;5087868;28;20043;-81
2021/12/14 02:30:52;;;;;;;7.15;4.80;;;5.40;99.90;;;;;;5091954;28;20019;-82
2021/12/14 02:33:24;;;;;;;9.05;5.22;;;5.40;99.90;;;;;;5089697;28;20028;-82
2021/12/14 02:35:52;;;;;;;5.88;4.00;;;5.40;99.90;;;;;;5090489;28;20036;-82
2021/12/14 02:38:19;;;;;;;4.85;3.70;;;5.40;99.90;;;;;;5079508;28;20071;-82
2021/12/14 02:41:01;;;;;;;4.30;3.20;;;5.40;99.90;;;;;;5085753;28;20052;-82
2021/12/14 02:43:32;;;;;;;4.65;3.33;;;5.40;99.90;;;;;;5079310;28;20212;-82
2021/12/14 02:46:24;;;;;;;3.30;2.67;;;5.40;99.90;;;;;;5092285;28;20024;-82
2021/12/14 02:48:59;;;;;;;6.28;3.35;;;5.40;99.90;;;;;;5090350;28;20040;-82
2021/12/14 02:51:29;;;;;;;5.75;2.90;;;5.40;99.90;;;;;;5086981;28;20016;-82
2021/12/14 02:53:59;;;;;;;4.85;2.95;;;5.40;99.90;;;;;;5092022;28;20032;-82
2021/12/14 02:56:29;;;;;;;4.50;2.60;;;5.30;99.90;;;;;;5083800;28;20078;-82
2021/12/14 02:58:58;;;;;;;5.07;2.80;;;5.20;99.90;;;;;;5086795;28;20379;-81
2021/12/14 03:01:25;;;;;;;4.82;3.08;;;5.20;99.90;;;;;;5087855;28;20059;-82
2021/12/14 03:03:51;;;;;;;4.82;3.22;;;5.10;99.90;;;;;;5092338;28;20043;-81
2021/12/14 03:06:21;;;;;;;3.63;2.70;;;5.00;99.90;;;;;;5089669;28;20085;-81
2021/12/14 03:09:06;;;;;;;2.90;2.15;;;4.90;99.90;;;;;;5092791;28;20024;-80
2021/12/14 03:11:33;;;;;;;5.13;3.33;;;4.90;99.90;;;;;;5091083;28;20020;-80
2021/12/14 03:13:59;;;;;;;6.25;3.30;;;4.90;99.90;;;;;;5110670;27;20076;-82
2021/12/14 03:16:28;;;;;;;5.00;3.35;;;4.90;99.90;;;;;;5091567;28;20074;-80
2021/12/14 03:18:57;;;;;;;6.82;3.00;;;4.90;99.90;;;;;;5093537;28;20526;-80
2021/12/14 03:21:28;;;;;;;5.68;3.60;;;5.00;99.90;;;;;;5082658;28;20146;-81
2021/12/14 03:24:09;;;;;;;3.67;2.67;;;5.00;99.90;;;;;;5092962;28;20036;-81
2021/12/14 03:26:39;;;;;;;3.42;2.20;;;5.10;99.90;;;;;;5086431;28;20029;-80
2021/12/14 03:29:11;;;;;;;4.20;2.60;;;5.10;99.90;;;;;;5092776;28;20032;-81
2021/12/14 03:31:44;;;;;;;5.78;2.75;;;5.20;99.90;;;;;;5093280;28;20071;-80
2021/12/14 03:34:33;;;;;;;3.35;2.80;;;5.20;99.90;;;;;;5090967;28;20300;-80
2021/12/14 03:37:12;;;;;;;4.80;3.25;;;5.20;99.90;;;;;;5108927;27;20029;-80
2021/12/14 03:39:52;;;;;;;6.45;2.55;;;5.10;99.90;;;;;;5085832;28;20028;-80
2021/12/14 03:42:24;;;;;;;6.45;2.38;;;5.20;99.90;;;;;;5090586;28;20506;-79
2021/12/14 03:44:56;;;;;;;4.95;2.78;;;5.20;99.90;;;;;;5087705;28;20047;-80
2021/12/14 03:47:31;;;;;;;3.40;2.70;;;5.20;99.90;;;;;;5086530;28;20131;-80
2021/12/14 03:50:07;;;;;;;2.63;2.22;;;5.30;99.90;;;;;;5091342;28;20277;-80
2021/12/14 03:52:36;;;;;;;4.50;2.72;;;5.30;99.90;;;;;;5087932;28;20027;-81
2021/12/14 03:55:11;;;;;;;3.95;2.78;;;5.30;99.90;;;;;;5083273;28;20516;-80
2021/12/14 03:57:37;;;;;;;5.53;2.72;;;5.30;99.90;;;;;;5087639;28;20016;-81
2021/12/14 04:00:07;;;;;;;4.18;2.55;;;5.30;99.90;;;;;;5090238;28;20056;-81
2021/12/14 04:02:34;;;;;;;4.63;2.67;;;5.30;99.90;;;;;;5089026;28;20031;-81
2021/12/14 04:05:06;;;;;;;3.92;2.60;;;5.30;99.90;;;;;;5086022;28;20023;-80
2021/12/14 04:07:34;;;;;;;3.05;2.58;;;5.20;99.90;;;;;;5089860;28;20470;-81
2021/12/14 04:10:02;;;;;;;3.42;2.67;;;5.20;99.90;;;;;;5091678;28;20526;-80
2021/12/14 04:12:28;;;;;;;3.30;2.60;;;5.20;99.90;;;;;;5090829;28;20036;-83
2021/12/14 04:14:57;;;;;;;4.40;2.70;;;5.20;99.90;;;;;;5091119;28;20513;-82
2021/12/14 04:17:25;;;;;;;4.00;2.67;;;5.10;99.90;;;;;;5083798;28;20026;-81
2021/12/14 04:19:52;;;;;;;5.72;2.97;;;5.10;99.90;;;;;;5087000;28;20036;-81
2021/12/14 04:22:23;;;;;;;2.70;2.28;;;5.20;99.90;;;;;;5086744;28;20032;-79
2021/12/14 04:24:54;;;;;;;3.03;2.28;;;5.20;99.90;;;;;;5078376;28;20016;-79
2021/12/14 04:27:23;;;;;;;2.30;2.10;;;5.20;99.90;;;;;;5089684;28;20111;-80
2021/12/14 04:29:50;;;;;;;2.97;2.40;;;5.20;99.90;;;;;;5084662;28;20043;-83
2021/12/14 04:32:18;;;;;;;2.85;2.10;;;5.20;99.90;;;;;;5086326;28;20027;-83
2021/12/14 04:34:44;;;;;;;2.80;2.22;;;5.10;99.90;;;;;;5085142;28;20606;-83
2021/12/14 04:37:11;;;;;;;3.63;2.63;;;5.10;99.90;;;;;;5088155;28;20032;-82
2021/12/14 04:39:44;;;;;;;4.13;2.60;;;5.10;99.90;;;;;;5089830;28;20108;-81
2021/12/14 04:53:24;;;;;;;2.67;2.15;;;5.00;99.90;;;;;;5082416;28;20039;-82
2021/12/14 04:55:53;;;;;;;5.53;2.60;;;5.10;99.90;;;;;;5085665;28;20107;-81
2021/12/14 04:58:31;;;;;;;2.20;2.00;;;5.00;99.90;;;;;;5092297;28;20028;-80
2021/12/14 05:00:59;;;;;;;3.13;2.20;;;5.10;99.90;;;;;;5088556;28;20111;-81
2021/12/14 05:03:36;;;;;;;2.92;2.20;;;5.10;99.90;;;;;;5081623;28;20100;-81
2021/12/14 05:06:13;;;;;;;2.45;2.00;;;5.10;99.90;;;;;;5087432;28;20394;-81
2021/12/14 05:11:18;;;;;;;2.90;2.60;;;5.20;99.90;;;;;;5090840;28;20036;-79
2021/12/14 05:13:54;;;;;;;5.55;2.30;;;5.20;99.90;;;;;;5090610;28;20464;-79
2021/12/14 05:16:23;;;;;;;2.05;1.83;;;5.20;99.90;;;;;;5091164;28;20032;-79
2021/12/14 05:18:56;;;;;;;2.75;2.33;;;5.30;99.90;;;;;;5082506;28;20020;-79
2021/12/14 05:21:24;;;;;;;3.53;2.22;;;5.30;99.90;;;;;;5086861;28;20101;-79
2021/12/14 05:23:51;;;;;;;3.30;2.47;;;5.40;99.90;;;;;;5090390;28;20028;-79
2021/12/14 05:26:18;;;;;;;3.42;2.03;;;5.40;99.90;;;;;;5085974;28;20028;-79
2021/12/14 05:28:44;;;;;;;2.78;2.05;;;5.30;99.90;;;;;;5091541;28;20433;-81
2021/12/14 05:31:09;;;;;;;2.45;2.10;;;5.30;99.90;;;;;;5089772;28;20467;-81
2021/12/14 05:33:36;;;;;;;3.45;2.20;;;5.30;99.90;;;;;;5088273;28;20028;-81
2021/12/14 05:36:08;;;;;;;3.28;2.53;;;5.30;99.90;;;;;;5091121;28;20107;-80
2021/12/14 05:43:59;;;;;;;3.88;2.30;;;5.30;99.90;;;;;;5079447;28;20066;-81
2021/12/14 05:46:26;;;;;;;4.03;2.97;;;5.30;99.90;;;;;;5090133;28;20119;-81
2021/12/14 05:48:58;;;;;;;8.40;3.47;;;5.30;99.90;;;;;;5090879;28;20028;-81
2021/12/14 05:51:23;;;;;;;7.47;4.03;;;5.20;99.90;;;;;;5102745;28;20401;-80
2021/12/14 05:53:49;;;;;;;8.18;4.00;;;5.10;99.90;;;;;;5090764;28;20043;-83
2021/12/14 05:56:19;;;;;;;8.38;3.85;;;5.10;99.90;;;;;;5089305;28;20055;-83
2021/12/14 05:58:46;;;;;;;6.65;3.35;;;5.00;99.90;;;;;;5090868;28;20024;-82
2021/12/14 06:01:15;;;;;;;11.15;4.00;;;5.00;99.90;;;;;;5088830;28;20120;-81
2021/12/14 06:04:03;;;;;;;8.05;3.80;;;4.90;99.90;;;;;;5085976;28;20024;-81
2021/12/14 06:06:37;;;;;;;8.55;3.42;;;4.90;99.90;;;;;;5089940;28;20044;-81
2021/12/14 06:09:07;;;;;;;5.32;3.22;;;4.80;99.90;;;;;;5089751;28;20024;-81
2021/12/14 06:11:34;;;;;;;5.82;2.90;;;4.90;99.90;;;;;;5089475;28;20139;-81
2021/12/14 06:14:00;;;;;;;5.90;2.95;;;4.90;99.90;;;;;;5088990;28;20032;-81
2021/12/14 06:16:34;;;;;;;5.05;2.78;;;5.00;99.90;;;;;;5089349;28;20024;-82
2021/12/14 06:19:25;;;;;;;4.65;2.10;;;4.90;99.90;;;;;;5110740;28;20120;-82
2021/12/14 06:22:00;;;;;;;3.75;2.53;;;4.90;99.90;;;;;;5083680;28;20028;-82
2021/12/14 06:24:28;;;;;;;6.22;3.10;;;4.90;99.90;;;;;;5085928;28;20032;-82
2021/12/14 06:26:56;;;;;;;16.13;2.90;;;4.90;99.90;;;;;;5084466;28;20069;-81
2021/12/14 06:29:26;;;;;;;5.68;2.28;;;5.00;99.90;;;;;;5090315;28;20035;-81
2021/12/14 06:31:52;;;;;;;4.10;1.85;;;5.00;99.90;;;;;;5089977;28;20059;-81
2021/12/14 06:34:23;;;;;;;5.20;2.35;;;5.00;99.90;;;;;;5086965;28;20440;-81
2021/12/14 06:37:03;;;;;;;6.32;2.58;;;5.10;99.90;;;;;;5089912;28;20474;-82
2021/12/14 06:40:01;;;;;;;4.47;2.40;;;5.20;99.90;;;;;;5088722;28;20020;-81
2021/12/14 06:42:28;;;;;;;5.45;2.60;;;5.20;99.90;;;;;;5085825;28;20037;-87
2021/12/14 06:45:17;;;;;;;4.15;2.40;;;5.20;99.90;;;;;;5091489;28;20047;-85
2021/12/14 06:47:44;;;;;;;5.75;2.70;;;5.10;99.90;;;;;;5089850;28;20502;-84
2021/12/14 06:50:14;;;;;;;4.50;2.60;;;5.20;99.90;;;;;;5093299;28;20021;-85
2021/12/14 06:52:41;;;;;;;7.15;3.90;;;5.20;99.90;;;;;;5094991;28;20496;-85
2021/12/14 06:55:18;;;;;;;9.48;4.60;;;5.20;99.90;;;;;;5092920;28;20028;-86
2021/12/14 06:57:44;;;;;;;11.27;5.07;;;5.20;99.90;;;;;;5090746;28;20025;-83
2021/12/14 07:00:10;;;;;;;14.43;4.75;;;5.30;99.90;;;;;;5090588;28;20387;-84
2021/12/14 07:02:36;;;;;;;8.05;4.10;;;5.30;99.90;;;;;;5088421;28;20028;-84
2021/12/14 07:05:03;;;;;;;13.82;4.65;;;5.30;99.90;;;;;;5091280;28;20030;-84
2021/12/14 07:07:30;;;;;;;11.60;4.95;;;5.30;99.90;;;;;;5091257;28;20173;-85
2021/12/14 07:09:59;;;;;;;11.50;5.00;;;5.40;99.90;;;;;;5087406;28;20102;-84
2021/12/14 07:12:33;;;;;;;11.98;5.55;;;5.50;99.90;;;;;;5074881;28;20035;-82
2021/12/14 07:15:00;;;;;;;16.92;6.53;;;5.60;99.90;;;;;;5088826;28;20036;-82
2021/12/14 07:17:42;;;;;;;11.63;5.07;;;5.70;99.90;;;;;;5092493;28;20486;-81
2021/12/14 07:20:11;;;;;;;11.63;5.32;;;5.80;99.90;;;;;;5091976;28;20050;-82
2021/12/14 07:22:39;;;;;;;10.75;4.75;;;5.90;99.90;;;;;;5086277;28;20059;-83
2021/12/14 07:25:35;;;;;;;8.18;5.18;;;5.90;99.90;;;;;;5092604;28;20020;-82
2021/12/14 07:28:10;;;;;;;18.70;5.85;;;6.00;99.90;;;;;;5091412;28;20024;-82
2021/12/14 07:30:40;;;;;;;13.75;4.75;;;6.10;99.90;;;;;;5091553;28;20163;-83
2021/12/14 07:33:16;;;;;;;7.40;4.13;;;6.10;99.90;;;;;;5085167;28;20017;-84
2021/12/14 07:35:50;;;;;;;7.78;3.47;;;6.20;99.90;;;;;;5093323;28;20486;-83
2021/12/14 07:38:16;;;;;;;13.00;3.80;;;6.20;99.90;;;;;;5082130;28;20111;-83
2021/12/14 07:40:46;;;;;;;7.80;3.75;;;6.30;99.90;;;;;;5090982;28;20119;-84
2021/12/14 07:43:24;;;;;;;7.65;4.20;;;6.30;99.90;;;;;;5092409;28;20024;-84
2021/12/14 07:45:51;;;;;;;7.38;2.83;;;6.30;99.90;;;;;;5089215;28;20020;-84
2021/12/14 07:48:36;;;;;;;4.18;2.38;;;6.40;99.90;;;;;;5085285;28;20070;-84
2021/12/14 07:51:03;;;;;;;5.53;2.95;;;6.40;99.90;;;;;;5090145;28;20518;-84
2021/12/14 07:53:37;;;;;;;5.95;2.90;;;6.50;99.90;;;;;;5092864;28;20100;-84
2021/12/14 07:56:03;;;;;;;4.50;2.60;;;6.60;99.90;;;;;;5090459;28;20030;-84
2021/12/14 07:58:35;;;;;;;3.80;2.33;;;6.70;99.90;;;;;;5092034;28;20020;-83
2021/12/14 08:01:01;;;;;;;2.95;2.40;;;6.80;99.90;;;;;;5090604;28;20036;-84
2021/12/14 08:03:33;;;;;;;5.38;2.83;;;6.90;99.90;;;;;;5091950;28;20032;-83
2021/12/14 08:06:02;;;;;;;4.30;2.80;;;7.00;99.90;;;;;;5092429;28;20641;-84
2021/12/14 08:08:48;;;;;;;5.65;3.05;;;7.10;99.90;;;;;;5091275;28;20032;-84
2021/12/14 08:14:09;;;;;;;7.13;3.50;;;7.20;99.90;;;;;;5091859;28;20044;-83
2021/12/14 08:16:53;;;;;;;9.65;4.43;;;7.30;99.90;;;;;;5090345;28;20028;-83
2021/12/14 08:19:39;;;;;;;10.23;4.50;;;7.40;99.90;;;;;;5086359;28;20028;-83
2021/12/14 08:22:24;;;;;;;7.13;4.35;;;7.40;99.90;;;;;;5082494;28;20116;-83
2021/12/14 08:24:50;;;;;;;9.00;4.85;;;7.50;99.90;;;;;;5087988;28;20032;-83
2021/12/14 08:27:23;;;;;;;6.03;3.85;;;7.60;99.90;;;;;;5087608;28;20016;-83
2021/12/14 08:29:54;;;;;;;6.80;3.83;;;7.60;99.90;;;;;;5089616;28;20090;-82
2021/12/14 08:32:26;;;;;;;10.68;4.03;;;7.60;99.90;;;;;;5089954;28;20055;-83
2021/12/14 08:34:54;;;;;;;11.67;4.93;;;7.70;99.90;;;;;;5090393;28;20506;-83
2021/12/14 08:37:46;;;;;;;13.07;5.10;;;7.70;99.90;;;;;;5089852;28;20024;-83
2021/12/14 08:40:24;;;;;;;7.70;4.70;;;7.80;99.90;;;;;;5089537;28;20383;-83
2021/12/14 08:43:05;;;;;;;8.07;4.00;;;7.90;99.90;;;;;;5089644;28;20111;-82
2021/12/14 08:45:36;;;;;;;8.35;4.10;;;8.00;99.90;;;;;;5087926;28;20578;-83
2021/12/14 08:48:24;;;;;;;10.02;4.40;;;8.00;99.90;;;;;;5091219;28;20016;-83
2021/12/14 08:50:56;;;;;;;10.52;4.18;;;8.10;99.90;;;;;;5087666;28;20550;-83
2021/12/14 08:53:26;;;;;;;5.75;3.92;;;8.10;99.90;;;;;;5089848;28;20031;-80
2021/12/14 08:55:55;;;;;;;5.93;3.00;;;8.20;99.90;;;;;;5091250;28;20063;-82
2021/12/14 08:58:21;;;;;;;6.43;2.83;;;8.30;99.90;;;;;;5087792;28;20057;-82
2021/12/14 09:00:51;;;;;;;7.43;3.10;;;8.40;99.90;;;;;;5084761;28;20024;-79
2021/12/14 09:03:31;;;;;;;6.07;3.38;;;8.50;99.90;;;;;;5089743;28;20028;-80
2021/12/14 09:06:00;;;;;;;11.93;3.97;;;8.70;99.90;;;;;;5085855;28;20085;-80
2021/12/14 09:08:26;;;;;;;6.75;3.65;;;8.80;99.90;;;;;;5086773;28;20506;-79
2021/12/14 09:10:54;;;;;;;4.97;3.20;;;9.00;99.90;;;;;;5090473;28;20028;-82
2021/12/14 09:13:20;;;;;;;5.35;3.03;;;9.00;99.90;;;;;;5084126;28;20115;-80
2021/12/14 09:15:53;;;;;;;6.05;2.63;;;9.20;99.90;;;;;;5086335;28;20338;-82
2021/12/14 09:18:21;;;;;;;8.02;3.13;;;9.30;99.90;;;;;;5088393;28;20024;-80
2021/12/14 09:20:53;;;;;;;8.60;3.10;;;9.50;99.90;;;;;;5089658;28;20432;-81
2021/12/14 09:23:23;;;;;;;8.38;3.50;;;9.70;99.90;;;;;;5089268;28;20390;-78
2021/12/14 09:25:50;;;;;;;46.17;16.13;;;9.80;99.90;;;;;;5086476;28;20039;-83
2021/12/14 09:28:17;;;;;;;19.38;7.00;;;9.90;99.90;;;;;;5090599;28;20024;-83
2021/12/14 09:30:49;;;;;;;16.30;3.72;;;10.10;99.90;;;;;;5087113;28;20099;-80
2021/12/14 09:33:16;;;;;;;6.32;3.60;;;10.10;99.90;;;;;;5087908;28;20032;-80
2021/12/14 09:35:44;;;;;;;7.07;4.47;;;10.10;99.90;;;;;;5089130;28;20035;-80
2021/12/14 09:38:13;;;;;;;5.25;3.33;;;10.10;99.90;;;;;;5088891;28;20062;-82
2021/12/14 09:40:48;;;;;;;5.72;3.47;;;10.10;99.90;;;;;;5085681;28;20486;-87
2021/12/14 09:43:14;;;;;;;10.05;3.80;;;10.10;99.90;;;;;;5090000;28;20012;-87
2021/12/14 09:45:44;;;;;;;7.88;4.05;;;10.10;99.90;;;;;;5089005;28;20020;-88
2021/12/14 09:48:15;;;;;;;8.15;3.45;;;10.20;99.90;;;;;;5095513;28;20020;-90
2021/12/14 09:50:43;;;;;;;7.32;3.50;;;10.40;99.90;;;;;;5091644;28;20114;-88
2021/12/14 09:53:15;;;;;;;10.63;4.10;;;10.40;99.90;;;;;;5093546;28;20087;-87
2021/12/14 09:55:43;;;;;;;4.32;3.08;;;10.40;99.90;;;;;;5096387;28;20089;-88
2021/12/14 09:58:15;;;;;;;6.10;3.70;;;10.50;99.90;;;;;;5096755;28;20017;-88
2021/12/14 10:00:50;;;;;;;5.22;2.90;;;10.70;99.90;;;;;;5093599;28;20035;-88
2021/12/14 10:03:16;;;;;;;4.63;3.70;;;10.80;99.90;;;;;;5087852;28;20029;-87
2021/12/14 10:05:47;;;;;;;3.72;3.33;;;10.90;99.90;;;;;;5093676;28;20107;-87
2021/12/14 10:08:21;;;;;;;7.53;3.80;;;11.00;99.90;;;;;;5094140;28;21084;-88
2021/12/14 10:11:04;;;;;;;6.15;3.70;;;11.00;99.90;;;;;;5096000;28;20111;-89
2021/12/14 10:13:31;;;;;;;8.27;3.75;;;10.90;99.90;;;;;;5090175;28;20028;-88
2021/12/14 10:15:59;;;;;;;6.82;4.40;;;10.80;99.90;;;;;;5094737;28;20089;-87
2021/12/14 10:18:32;;;;;;;6.15;4.10;;;10.80;99.90;;;;;;5092623;28;20370;-88
2021/12/14 10:21:30;;;;;;;11.65;4.20;;;10.80;99.90;;;;;;5094795;28;20028;-87
2021/12/14 10:24:00;;;;;;;14.10;4.75;;;10.90;99.90;;;;;;5095095;28;20470;-87
2021/12/14 10:26:30;;;;;;;6.68;4.60;;;10.90;99.90;;;;;;5089782;28;20024;-79
2021/12/14 10:28:58;;;;;;;9.02;4.90;;;11.00;99.90;;;;;;5086419;28;20531;-85
2021/12/14 10:31:40;;;;;;;9.25;4.57;;;11.10;99.90;;;;;;5091928;28;20043;-86
2021/12/14 10:34:13;;;;;;;8.05;4.43;;;11.10;99.90;;;;;;5090919;28;20448;-87
2021/12/14 10:36:43;;;;;;;;;;;11.20;99.90;;;;;;5084210;28;20025;-85
2021/12/14 10:39:37;;;;;;;11.55;6.13;;;11.30;99.90;;;;;;5074048;28;19911;-85
2021/12/14 10:45:03;;;;;;;9.27;5.00;;;11.30;99.90;;;;;;5081376;28;20039;-86
2021/12/14 10:47:30;;;;;;;9.20;4.28;;;11.10;99.90;;;;;;5095272;28;20056;-89
2021/12/14 10:50:01;;;;;;;6.50;4.70;;;11.20;99.90;;;;;;5093480;28;20028;-87
2021/12/14 10:52:29;;;;;;;11.63;4.93;;;11.30;99.90;;;;;;5083482;28;20028;-88
2021/12/14 10:55:06;;;;;;;8.25;5.35;;;11.40;99.90;;;;;;5096967;28;20032;-87
2021/12/14 10:57:34;;;;;;;9.13;6.03;;;11.50;99.90;;;;;;5096694;28;20466;-87
2021/12/14 11:00:01;;;;;;;10.32;5.40;;;11.70;99.90;;;;;;5096648;28;20031;-88
2021/12/14 11:02:28;;;;;;;5.80;4.50;;;11.80;99.90;;;;;;5096477;28;20039;-88
2021/12/14 11:04:59;;;;;;;6.45;4.85;;;12.10;99.90;;;;;;5093978;28;20029;-85
2021/12/14 11:07:42;;;;;;;9.63;5.90;;;12.10;99.90;;;;;;5091978;28;20031;-88
2021/12/14 11:10:13;;;;;;;12.68;5.80;;;12.10;99.90;;;;;;5090714;28;20032;-84
2021/12/14 11:12:43;;;;;;;10.40;6.03;;;12.30;99.90;;;;;;5092332;28;20013;-87
2021/12/14 11:15:22;;;;;;;10.32;6.82;;;12.10;99.90;;;;;;5095041;28;20044;-86
2021/12/14 11:18:12;;;;;;;12.05;6.70;;;12.00;99.90;;;;;;5092354;28;20027;-86
2021/12/14 11:20:41;;;;;;;12.50;6.70;;;12.00;99.90;;;;;;5093839;28;20472;-85
2021/12/14 11:23:09;;;;;;;11.48;7.60;;;12.30;99.90;;;;;;5082487;28;20478;-85
2021/12/14 11:26:11;;;;;;;15.13;7.20;;;12.30;99.90;;;;;;5095621;28;20016;-85
2021/12/14 11:28:37;;;;;;;10.77;6.88;;;12.30;99.90;;;;;;5090760;28;20390;-84
2021/12/14 11:31:28;;;;;;;11.68;6.43;;;12.50;99.90;;;;;;5094409;28;20024;-86
2021/12/14 11:33:59;;;;;;;10.18;6.07;;;12.50;99.90;;;;;;5090945;28;20525;-84
2021/12/14 11:36:35;;;;;;;10.20;6.20;;;12.60;99.90;;;;;;5092741;28;20447;-86
2021/12/14 11:39:06;;;;;;;12.05;7.50;;;12.90;99.90;;;;;;5093961;28;20024;-85
2021/12/14 11:41:37;;;;;;;12.00;6.60;;;12.90;99.90;;;;;;5094352;28;20056;-85
2021/12/14 11:44:08;;;;;;;10.13;6.20;;;12.90;99.90;;;;;;5087659;28;20032;-84
2021/12/14 11:46:51;;;;;;;10.77;6.22;;;12.80;99.90;;;;;;5095643;28;20020;-84
2021/12/14 11:49:18;;;;;;;11.48;6.25;;;12.70;99.90;;;;;;5095927;28;20024;-85
2021/12/14 11:51:44;;;;;;;9.35;6.22;;;12.90;99.90;;;;;;5089631;28;20398;-86
2021/12/14 11:54:14;;;;;;;11.00;6.10;;;12.90;99.90;;;;;;5096399;28;20028;-85
2021/12/14 11:56:39;;;;;;;13.18;6.03;;;12.70;99.90;;;;;;5095369;28;20031;-86
2021/12/14 11:59:08;;;;;;;7.72;5.38;;;12.70;99.90;;;;;;5090879;28;20020;-86
2021/12/14 12:01:49;;;;;;;8.75;5.78;;;12.60;99.90;;;;;;5093840;28;20122;-85
2021/12/14 12:04:33;;;;;;;7.82;5.18;;;12.50;99.90;;;;;;5094346;28;20028;-85
2021/12/14 12:09:52;;;;;;;6.45;4.70;;;12.40;99.90;;;;;;5094382;28;20110;-86
2021/12/14 12:12:39;;;;;;;9.25;5.05;;;12.50;99.90;;;;;;5081038;28;20048;-86
2021/12/14 12:15:10;;;;;;;8.98;5.53;;;12.40;99.90;;;;;;5091277;28;20024;-84
2021/12/14 12:18:00;;;;;;;7.07;5.22;;;12.40;99.90;;;;;;5089839;28;20032;-85
2021/12/14 12:20:37;;;;;;;7.32;4.78;;;12.70;99.90;;;;;;5094212;28;20099;-85
2021/12/14 12:23:24;;;;;;;9.10;5.47;;;12.90;99.90;;;;;;5093671;28;20034;-85
2021/12/14 12:25:59;;;;;;;15.65;5.63;;;13.20;99.90;;;;;;5087172;28;20035;-83
2021/12/14 12:28:34;;;;;;;16.83;5.25;;;13.70;99.90;;;;;;5090875;28;20024;-83
2021/12/14 12:31:12;;;;;;;8.88;4.30;;;14.00;99.90;;;;;;5086444;28;20035;-81
2021/12/14 12:33:40;;;;;;;9.52;4.85;;;14.10;99.90;;;;;;5093102;28;20059;-86
2021/12/14 12:36:06;;;;;;;11.02;5.30;;;14.10;99.90;;;;;;5092800;28;20458;-88
2021/12/14 12:39:01;;;;;;;8.13;5.30;;;13.60;99.90;;;;;;5092146;28;20048;-82
2021/12/14 12:41:48;;;;;;;9.38;5.70;;;13.00;99.90;;;;;;5088270;28;20056;-81
2021/12/14 12:44:18;;;;;;;11.20;4.63;;;12.70;99.90;;;;;;5092501;28;20028;-80
2021/12/14 12:47:07;;;;;;;11.07;5.10;;;12.50;99.90;;;;;;5092089;28;20024;-80
2021/12/14 12:49:37;;;;;;;11.13;5.63;;;12.40;99.90;;;;;;5085997;28;20026;-81
2021/12/14 12:52:09;;;;;;;8.38;5.50;;;12.40;99.90;;;;;;5091911;28;20024;-81
2021/12/14 12:54:49;;;;;;;8.25;5.63;;;12.30;99.90;;;;;;5092367;28;20202;-82
2021/12/14 12:57:14;;;;;;;8.57;5.45;;;12.30;99.90;;;;;;5082231;28;20447;-82
2021/12/14 12:59:49;;;;;;;11.50;5.68;;;12.20;99.90;;;;;;5086176;28;20138;-84
2021/12/14 13:02:31;;;;;;;7.93;5.25;;;12.20;99.90;;;;;;5090310;28;20016;-83
2021/12/14 13:05:01;;;;;;;9.52;5.53;;;12.30;99.90;;;;;;5086305;28;20039;-83
2021/12/14 13:07:47;;;;;;;7.00;4.90;;;12.60;99.90;;;;;;5085594;28;20374;-85
2021/12/14 13:10:24;;;;;;;9.07;4.45;;;12.80;99.90;;;;;;5089605;28;20043;-83
2021/12/14 13:13:02;;;;;;;5.55;3.45;;;12.90;99.90;;;;;;5083807;28;20552;-82
2021/12/14 13:15:52;;;;;;;8.45;4.70;;;12.80;99.90;;;;;;5084625;28;20043;-83
2021/12/14 13:18:29;;;;;;;5.15;4.05;;;12.50;99.90;;;;;;5089679;28;20012;-82
2021/12/14 13:21:25;;;;;;;6.18;3.92;;;12.20;99.90;;;;;;5082116;28;20095;-86
2021/12/14 13:23:54;;;;;;;7.63;4.32;;;11.90;99.90;;;;;;5088102;28;20034;-83
2021/12/14 13:26:30;;;;;;;9.43;3.92;;;11.70;99.90;;;;;;5089564;28;20028;-82
2021/12/14 13:29:06;;;;;;;4.85;3.95;;;11.70;99.90;;;;;;5089419;28;20024;-85
2021/12/14 13:31:38;;;;;;;8.25;4.13;;;11.60;99.90;;;;;;5090791;28;20029;-84
2021/12/14 13:34:09;;;;;;;6.15;4.22;;;11.60;99.90;;;;;;5093478;28;20059;-83
2021/12/14 13:36:36;;;;;;;7.45;4.20;;;11.50;99.90;;;;;;5091243;28;20020;-84
2021/12/14 13:39:06;;;;;;;10.98;4.53;;;11.40;99.90;;;;;;5090221;28;20028;-82
2021/12/14 13:42:12;;;;;;;7.78;4.18;;;11.30;99.90;;;;;;5085914;28;20049;-83
2021/12/14 13:44:52;;;;;;;7.35;4.40;;;11.20;99.90;;;;;;5079089;28;20043;-82
2021/12/14 13:47:22;;;;;;;10.45;4.72;;;11.20;99.90;;;;;;5092705;28;20016;-82
2021/12/14 13:49:47;;;;;;;11.10;5.05;;;11.30;99.90;;;;;;5084364;28;20028;-79
2021/12/14 13:52:17;;;;;;;9.65;5.13;;;11.20;99.90;;;;;;5087659;28;20028;-80
2021/12/14 13:55:13;;;;;;;6.63;5.05;;;11.20;99.90;;;;;;5090014;28;20048;-79